sensor_id;sensor_type;location;lat;lon;timestamp;pressure;altitude;pressure_sealevel;temperature;humidity
79347;BME280;68815;48.810;44.482;2023-05-10T00:00:42;100896;;;9.5;41.2
79347;BME280;68815;48.810;44.482;2023-05-10T00:03:43;100890;;;9.5;41.2
79347;BME280;68815;48.810;44.482;2023-05-10T00:06:44;100888;;;9.5;41.2
79347;BME280;68815;48.810;44.482;2023-05-10T00:09:46;100885;;;9.5;41
79347;BME280;68815;48.810;44.482;2023-05-10T00:12:47;100886;;;9.5;41.2
79347;BME280;68815;48.810;44.482;2023-05-10T00:15:49;100886;;;9.4;40.9
79347;BME280;68815;48.810;44.482;2023-05-10T00:18:50;100885;;;9.4;41.3
79347;BME280;68815;48.810;44.482;2023-05-10T00:21:52;100893;;;9.4;41.2
79347;BME280;68815;48.810;44.482;2023-05-10T00:24:53;100886;;;9.4;41.4
79347;BME280;68815;48.810;44.482;2023-05-10T00:27:54;100891;;;9.4;41.7
79347;BME280;68815;48.810;44.482;2023-05-10T00:31:01;100893;;;9.4;41.8
79347;BME280;68815;48.810;44.482;2023-05-10T00:34:03;100904;;;9.4;42
79347;BME280;68815;48.810;44.482;2023-05-10T00:37:05;100911;;;9.3;42.1
79347;BME280;68815;48.810;44.482;2023-05-10T00:40:06;100909;;;9.3;42.4
79347;BME280;68815;48.810;44.482;2023-05-10T00:46:39;100915;;;9.3;42.8
79347;BME280;68815;48.810;44.482;2023-05-10T00:49:41;100906;;;9.3;42.5
79347;BME280;68815;48.810;44.482;2023-05-10T00:52:42;100909;;;9.3;42.7
79347;BME280;68815;48.810;44.482;2023-05-10T00:55:44;100909;;;9.3;43
79347;BME280;68815;48.810;44.482;2023-05-10T00:58:45;100902;;;9.3;42.8
79347;BME280;68815;48.810;44.482;2023-05-10T01:01:47;100909;;;9.3;42.8
79347;BME280;68815;48.810;44.482;2023-05-10T01:04:49;100914;;;9.3;43.1
79347;BME280;68815;48.810;44.482;2023-05-10T01:07:50;100911;;;9.2;43.5
79347;BME280;68815;48.810;44.482;2023-05-10T01:10:52;100906;;;9.3;43.1
79347;BME280;68815;48.810;44.482;2023-05-10T01:13:56;100894;;;9.4;42.9
79347;BME280;68815;48.810;44.482;2023-05-10T01:16:58;100872;;;9.3;43.2
79347;BME280;68815;48.810;44.482;2023-05-10T01:20:00;100855;;;9.1;43.1
79347;BME280;68815;48.810;44.482;2023-05-10T01:23:12;100860;;;9.1;43.2
79347;BME280;68815;48.810;44.482;2023-05-10T01:26:30;100876;;;9.1;43.3
79347;BME280;68815;48.810;44.482;2023-05-10T01:29:47;100890;;;9.1;43.3
79347;BME280;68815;48.810;44.482;2023-05-10T01:32:59;100891;;;9.1;43.2
79347;BME280;68815;48.810;44.482;2023-05-10T01:36:05;100897;;;9.2;43.1
79347;BME280;68815;48.810;44.482;2023-05-10T01:39:15;100897;;;9.1;43.1
79347;BME280;68815;48.810;44.482;2023-05-10T01:42:21;100891;;;9.1;43.7
79347;BME280;68815;48.810;44.482;2023-05-10T01:45:31;100890;;;9;43.4
79347;BME280;68815;48.810;44.482;2023-05-10T01:48:36;100886;;;8.9;43.7
79347;BME280;68815;48.810;44.482;2023-05-10T01:51:40;100896;;;8.9;43.8
79347;BME280;68815;48.810;44.482;2023-05-10T01:54:49;100909;;;9.1;44
79347;BME280;68815;48.810;44.482;2023-05-10T01:57:56;100911;;;9;44
79347;BME280;68815;48.810;44.482;2023-05-10T02:01:03;100915;;;9;43.8
79347;BME280;68815;48.810;44.482;2023-05-10T02:04:07;100908;;;8.9;44.3
79347;BME280;68815;48.810;44.482;2023-05-10T02:07:09;100902;;;8.9;44.4
79347;BME280;68815;48.810;44.482;2023-05-10T02:10:12;100901;;;8.9;44.5
79347;BME280;68815;48.810;44.482;2023-05-10T02:13:16;100890;;;9;44.7
79347;BME280;68815;48.810;44.482;2023-05-10T02:16:22;100893;;;9.1;44.7
79347;BME280;68815;48.810;44.482;2023-05-10T02:19:25;100891;;;9.1;44.7
79347;BME280;68815;48.810;44.482;2023-05-10T02:22:45;100881;;;9;45.5
79347;BME280;68815;48.810;44.482;2023-05-10T02:25:49;100882;;;9;45.4
79347;BME280;68815;48.810;44.482;2023-05-10T02:28:53;100873;;;9;45.5
79347;BME280;68815;48.810;44.482;2023-05-10T02:31:57;100864;;;9.2;45.5
79347;BME280;68815;48.810;44.482;2023-05-10T02:35:01;100860;;;9.4;45.3
79347;BME280;68815;48.810;44.482;2023-05-10T02:38:07;100856;;;9.5;45.2
79347;BME280;68815;48.810;44.482;2023-05-10T02:41:09;100860;;;9.5;44.9
79347;BME280;68815;48.810;44.482;2023-05-10T02:44:14;100859;;;9.6;45.1
79347;BME280;68815;48.810;44.482;2023-05-10T02:47:16;100862;;;9.5;44.9
79347;BME280;68815;48.810;44.482;2023-05-10T02:50:19;100861;;;9.3;45.7
79347;BME280;68815;48.810;44.482;2023-05-10T02:53:23;100858;;;9.4;45.9
79347;BME280;68815;48.810;44.482;2023-05-10T02:56:25;100873;;;9.5;45.4
79347;BME280;68815;48.810;44.482;2023-05-10T02:59:30;100867;;;9.5;45.7
79347;BME280;68815;48.810;44.482;2023-05-10T03:02:32;100869;;;9.4;45.8
79347;BME280;68815;48.810;44.482;2023-05-10T03:05:33;100871;;;9.6;46.1
79347;BME280;68815;48.810;44.482;2023-05-10T03:08:35;100873;;;9.6;46.4
79347;BME280;68815;48.810;44.482;2023-05-10T03:11:47;100878;;;9.5;46.2
79347;BME280;68815;48.810;44.482;2023-05-10T03:14:57;100870;;;9.6;46.6
79347;BME280;68815;48.810;44.482;2023-05-10T03:18:07;100871;;;9.6;45.7
79347;BME280;68815;48.810;44.482;2023-05-10T03:21:11;100870;;;9.5;46.6
79347;BME280;68815;48.810;44.482;2023-05-10T03:24:15;100867;;;9.7;47
79347;BME280;68815;48.810;44.482;2023-05-10T03:27:17;100860;;;10.2;46.4
79347;BME280;68815;48.810;44.482;2023-05-10T03:30:20;100868;;;10.7;44
79347;BME280;68815;48.810;44.482;2023-05-10T03:33:21;100869;;;11.4;43.2
79347;BME280;68815;48.810;44.482;2023-05-10T03:36:23;100870;;;12;41.9
79347;BME280;68815;48.810;44.482;2023-05-10T03:39:24;100880;;;11.7;43.7
79347;BME280;68815;48.810;44.482;2023-05-10T03:42:26;100867;;;12.4;41.3
79347;BME280;68815;48.810;44.482;2023-05-10T03:45:27;100863;;;13.1;39.6
79347;BME280;68815;48.810;44.482;2023-05-10T03:48:28;100861;;;12.9;40.1
79347;BME280;68815;48.810;44.482;2023-05-10T03:51:30;100846;;;12.6;39.4
79347;BME280;68815;48.810;44.482;2023-05-10T03:54:31;100848;;;13.2;37.7
79347;BME280;68815;48.810;44.482;2023-05-10T03:57:33;100860;;;13.9;37
79347;BME280;68815;48.810;44.482;2023-05-10T04:00:34;100847;;;14.4;35.8
79347;BME280;68815;48.810;44.482;2023-05-10T04:03:36;100851;;;14;36.4
79347;BME280;68815;48.810;44.482;2023-05-10T04:06:37;100858;;;13.1;37.1
79347;BME280;68815;48.810;44.482;2023-05-10T04:09:40;100842;;;13.6;36.6
79347;BME280;68815;48.810;44.482;2023-05-10T04:12:41;100832;;;13.8;37.3
79347;BME280;68815;48.810;44.482;2023-05-10T04:15:43;100826;;;14.2;36.8
79347;BME280;68815;48.810;44.482;2023-05-10T04:18:44;100858;;;14.7;34.9
79347;BME280;68815;48.810;44.482;2023-05-10T04:21:46;100856;;;14.3;35.5
79347;BME280;68815;48.810;44.482;2023-05-10T04:24:47;100864;;;14.1;36.2
79347;BME280;68815;48.810;44.482;2023-05-10T04:27:49;100866;;;13.7;36.1
79347;BME280;68815;48.810;44.482;2023-05-10T04:30:50;100858;;;13.6;36.1
79347;BME280;68815;48.810;44.482;2023-05-10T04:33:51;100860;;;12.8;38.2
79347;BME280;68815;48.810;44.482;2023-05-10T04:36:53;100853;;;13.5;37.1
79347;BME280;68815;48.810;44.482;2023-05-10T04:39:54;100850;;;13.7;38.2
79347;BME280;68815;48.810;44.482;2023-05-10T04:42:56;100850;;;13.9;37.5
79347;BME280;68815;48.810;44.482;2023-05-10T04:45:57;100842;;;13.8;37.8
79347;BME280;68815;48.810;44.482;2023-05-10T04:48:59;100846;;;13.9;36.8
79347;BME280;68815;48.810;44.482;2023-05-10T04:52:05;100849;;;13.6;37.6
79347;BME280;68815;48.810;44.482;2023-05-10T04:55:07;100846;;;14.1;37.7
79347;BME280;68815;48.810;44.482;2023-05-10T04:58:09;100839;;;15.2;36.6
79347;BME280;68815;48.810;44.482;2023-05-10T05:01:10;100852;;;14.2;36.2
79347;BME280;68815;48.810;44.482;2023-05-10T05:04:12;100852;;;13.4;38.8
79347;BME280;68815;48.810;44.482;2023-05-10T05:07:13;100857;;;13.5;38.9
79347;BME280;68815;48.810;44.482;2023-05-10T05:10:15;100864;;;12.9;39.4
79347;BME280;68815;48.810;44.482;2023-05-10T05:13:16;100875;;;13.2;39.1
79347;BME280;68815;48.810;44.482;2023-05-10T05:16:17;100863;;;13.4;39.4
79347;BME280;68815;48.810;44.482;2023-05-10T05:22:50;100855;;;13.7;38.2
79347;BME280;68815;48.810;44.482;2023-05-10T05:25:52;100852;;;13.5;38.8
79347;BME280;68815;48.810;44.482;2023-05-10T05:28:54;100843;;;12.5;41.6
79347;BME280;68815;48.810;44.482;2023-05-10T05:31:55;100844;;;13.4;39.5
79347;BME280;68815;48.810;44.482;2023-05-10T05:34:57;100850;;;14;37.9
79347;BME280;68815;48.810;44.482;2023-05-10T05:41:29;100842;;;13.6;38
79347;BME280;68815;48.810;44.482;2023-05-10T05:44:31;100846;;;13.8;38.2
79347;BME280;68815;48.810;44.482;2023-05-10T05:47:32;100843;;;13.5;39.2
79347;BME280;68815;48.810;44.482;2023-05-10T05:50:33;100849;;;13.6;39.6
79347;BME280;68815;48.810;44.482;2023-05-10T05:53:35;100857;;;13.3;39.5
79347;BME280;68815;48.810;44.482;2023-05-10T05:56:37;100860;;;13.6;39.7
79347;BME280;68815;48.810;44.482;2023-05-10T05:59:38;100870;;;13.3;39.2
79347;BME280;68815;48.810;44.482;2023-05-10T06:02:39;100865;;;13.5;39.7
79347;BME280;68815;48.810;44.482;2023-05-10T06:05:41;100860;;;12.8;39.5
79347;BME280;68815;48.810;44.482;2023-05-10T06:08:42;100865;;;12.9;40.1
79347;BME280;68815;48.810;44.482;2023-05-10T06:11:44;100861;;;13.2;39.6
79347;BME280;68815;48.810;44.482;2023-05-10T06:14:45;100869;;;13;40.1
79347;BME280;68815;48.810;44.482;2023-05-10T06:17:47;100872;;;13;40.9
79347;BME280;68815;48.810;44.482;2023-05-10T06:20:49;100860;;;12.8;41.5
79347;BME280;68815;48.810;44.482;2023-05-10T06:23:51;100863;;;12.5;41.3
79347;BME280;68815;48.810;44.482;2023-05-10T06:26:52;100862;;;12.4;41.9
79347;BME280;68815;48.810;44.482;2023-05-10T06:29:54;100865;;;12.6;41
79347;BME280;68815;48.810;44.482;2023-05-10T06:32:55;100865;;;12.7;41.7
79347;BME280;68815;48.810;44.482;2023-05-10T06:35:57;100871;;;12.5;42.1
79347;BME280;68815;48.810;44.482;2023-05-10T06:38:58;100874;;;12.5;41.8
79347;BME280;68815;48.810;44.482;2023-05-10T06:42:00;100873;;;12.7;41.5
79347;BME280;68815;48.810;44.482;2023-05-10T06:45:01;100872;;;12.7;42.3
79347;BME280;68815;48.810;44.482;2023-05-10T06:48:07;100875;;;12.9;40.9
79347;BME280;68815;48.810;44.482;2023-05-10T06:51:08;100882;;;12.9;42.3
79347;BME280;68815;48.810;44.482;2023-05-10T06:54:09;100887;;;13.1;41.5
79347;BME280;68815;48.810;44.482;2023-05-10T06:57:11;100892;;;13;41
79347;BME280;68815;48.810;44.482;2023-05-10T07:00:13;100895;;;12.8;41.5
79347;BME280;68815;48.810;44.482;2023-05-10T07:03:15;100894;;;12.7;41.8
79347;BME280;68815;48.810;44.482;2023-05-10T07:06:16;100893;;;12.3;42.6
79347;BME280;68815;48.810;44.482;2023-05-10T07:09:18;100890;;;12.6;43.5
79347;BME280;68815;48.810;44.482;2023-05-10T07:12:19;100891;;;12.6;43.5
79347;BME280;68815;48.810;44.482;2023-05-10T07:15:20;100886;;;12.4;44.3
79347;BME280;68815;48.810;44.482;2023-05-10T07:18:22;100882;;;12.4;44.6
79347;BME280;68815;48.810;44.482;2023-05-10T07:21:23;100882;;;12.7;46.3
79347;BME280;68815;48.810;44.482;2023-05-10T07:24:25;100885;;;12.9;44.9
79347;BME280;68815;48.810;44.482;2023-05-10T07:27:26;100886;;;13;46.9
79347;BME280;68815;48.810;44.482;2023-05-10T07:30:27;100882;;;13.4;45
79347;BME280;68815;48.810;44.482;2023-05-10T07:33:29;100883;;;13.4;45.5
79347;BME280;68815;48.810;44.482;2023-05-10T07:36:30;100880;;;13.3;46.4
79347;BME280;68815;48.810;44.482;2023-05-10T07:39:31;100878;;;13;48.1
79347;BME280;68815;48.810;44.482;2023-05-10T07:42:33;100869;;;13.6;45.8
79347;BME280;68815;48.810;44.482;2023-05-10T07:45:40;100865;;;14;45
79347;BME280;68815;48.810;44.482;2023-05-10T07:48:41;100869;;;14;44
79347;BME280;68815;48.810;44.482;2023-05-10T07:51:42;100866;;;14.3;43.8
79347;BME280;68815;48.810;44.482;2023-05-10T07:54:44;100865;;;14.5;43
79347;BME280;68815;48.810;44.482;2023-05-10T07:57:45;100869;;;14.4;42.3
79347;BME280;68815;48.810;44.482;2023-05-10T08:00:47;100866;;;14.5;42.9
79347;BME280;68815;48.810;44.482;2023-05-10T08:03:49;100863;;;15.1;42.1
79347;BME280;68815;48.810;44.482;2023-05-10T08:06:50;100861;;;15.1;40.2
79347;BME280;68815;48.810;44.482;2023-05-10T08:09:52;100853;;;14.8;42.2
79347;BME280;68815;48.810;44.482;2023-05-10T08:12:53;100854;;;15.2;42.9
79347;BME280;68815;48.810;44.482;2023-05-10T08:15:54;100848;;;15.5;41.5
79347;BME280;68815;48.810;44.482;2023-05-10T08:18:58;100844;;;15.2;42.5
79347;BME280;68815;48.810;44.482;2023-05-10T08:22:12;100830;;;15.4;41.9
79347;BME280;68815;48.810;44.482;2023-05-10T08:25:14;100824;;;15.6;41
79347;BME280;68815;48.810;44.482;2023-05-10T08:28:16;100829;;;15.3;43.2
79347;BME280;68815;48.810;44.482;2023-05-10T08:31:17;100823;;;15.4;41.4
79347;BME280;68815;48.810;44.482;2023-05-10T08:34:18;100827;;;15.5;41.1
79347;BME280;68815;48.810;44.482;2023-05-10T08:37:20;100825;;;15.6;41.6
79347;BME280;68815;48.810;44.482;2023-05-10T08:40:23;100817;;;15.4;41
79347;BME280;68815;48.810;44.482;2023-05-10T08:43:27;100812;;;15.4;41
79347;BME280;68815;48.810;44.482;2023-05-10T08:46:29;100812;;;15.6;40.6
79347;BME280;68815;48.810;44.482;2023-05-10T08:49:32;100810;;;15.5;39.8
79347;BME280;68815;48.810;44.482;2023-05-10T08:52:37;100812;;;15.5;40.3
79347;BME280;68815;48.810;44.482;2023-05-10T08:55:40;100813;;;15.6;40
79347;BME280;68815;48.810;44.482;2023-05-10T08:58:42;100807;;;15.5;39.9
79347;BME280;68815;48.810;44.482;2023-05-10T09:01:44;100802;;;15.5;39.8
79347;BME280;68815;48.810;44.482;2023-05-10T09:04:46;100793;;;15.2;40.7
79347;BME280;68815;48.810;44.482;2023-05-10T09:07:47;100796;;;14.8;42.5
79347;BME280;68815;48.810;44.482;2023-05-10T09:10:49;100786;;;15;40.2
79347;BME280;68815;48.810;44.482;2023-05-10T09:13:50;100779;;;14.9;40.3
79347;BME280;68815;48.810;44.482;2023-05-10T09:16:53;100776;;;14.9;40
79347;BME280;68815;48.810;44.482;2023-05-10T09:19:57;100775;;;15;39.8
79347;BME280;68815;48.810;44.482;2023-05-10T09:23:00;100789;;;14.6;40.6
79347;BME280;68815;48.810;44.482;2023-05-10T09:26:02;100790;;;14.6;40.1
79347;BME280;68815;48.810;44.482;2023-05-10T09:29:03;100793;;;14.7;40.3
79347;BME280;68815;48.810;44.482;2023-05-10T09:35:36;100785;;;15.1;41.3
79347;BME280;68815;48.810;44.482;2023-05-10T09:38:45;100793;;;14.5;39.7
79347;BME280;68815;48.810;44.482;2023-05-10T09:41:47;100791;;;14.8;39.6
79347;BME280;68815;48.810;44.482;2023-05-10T09:44:49;100796;;;15;38.7
79347;BME280;68815;48.810;44.482;2023-05-10T09:47:50;100783;;;15.1;38.7
79347;BME280;68815;48.810;44.482;2023-05-10T09:50:56;100791;;;14.9;38.4
79347;BME280;68815;48.810;44.482;2023-05-10T09:54:14;100792;;;14.7;38.3
79347;BME280;68815;48.810;44.482;2023-05-10T09:57:20;100777;;;15;38.9
79347;BME280;68815;48.810;44.482;2023-05-10T10:00:21;100767;;;15.3;39.3
79347;BME280;68815;48.810;44.482;2023-05-10T10:03:25;100772;;;14.9;39.3
79347;BME280;68815;48.810;44.482;2023-05-10T10:06:26;100775;;;14.9;38.8
79347;BME280;68815;48.810;44.482;2023-05-10T10:09:28;100768;;;15.2;38.2
79347;BME280;68815;48.810;44.482;2023-05-10T10:12:30;100766;;;15;39.3
79347;BME280;68815;48.810;44.482;2023-05-10T10:15:32;100768;;;15.4;39.3
79347;BME280;68815;48.810;44.482;2023-05-10T10:18:36;100773;;;15.3;39.1
79347;BME280;68815;48.810;44.482;2023-05-10T10:21:37;100766;;;14.9;39.8
79347;BME280;68815;48.810;44.482;2023-05-10T10:24:39;100754;;;15.2;40.8
79347;BME280;68815;48.810;44.482;2023-05-10T10:27:48;100756;;;15.4;40.3
79347;BME280;68815;48.810;44.482;2023-05-10T10:31:02;100755;;;15.7;41.6
79347;BME280;68815;48.810;44.482;2023-05-10T10:34:22;100749;;;15.9;39.5
79347;BME280;68815;48.810;44.482;2023-05-10T10:37:44;100748;;;16;41.4
79347;BME280;68815;48.810;44.482;2023-05-10T10:40:46;100748;;;16.1;39.9
79347;BME280;68815;48.810;44.482;2023-05-10T10:47:22;100746;;;16;41.3
79347;BME280;68815;48.810;44.482;2023-05-10T10:50:23;100750;;;16.2;40.8
79347;BME280;68815;48.810;44.482;2023-05-10T10:53:26;100742;;;16.3;40.1
79347;BME280;68815;48.810;44.482;2023-05-10T10:56:27;100732;;;16.4;40.5
79347;BME280;68815;48.810;44.482;2023-05-10T10:59:29;100736;;;16.6;40.9
79347;BME280;68815;48.810;44.482;2023-05-10T11:02:34;100734;;;16.8;41
79347;BME280;68815;48.810;44.482;2023-05-10T11:05:46;100723;;;16.3;40.6
79347;BME280;68815;48.810;44.482;2023-05-10T11:08:47;100722;;;15.8;39.9
79347;BME280;68815;48.810;44.482;2023-05-10T11:11:51;100714;;;15.5;40.6
79347;BME280;68815;48.810;44.482;2023-05-10T11:14:56;100714;;;15.6;40.8
79347;BME280;68815;48.810;44.482;2023-05-10T11:17:59;100719;;;15.8;41.4
79347;BME280;68815;48.810;44.482;2023-05-10T11:21:01;100721;;;16;40.6
79347;BME280;68815;48.810;44.482;2023-05-10T11:24:13;100726;;;16.2;40.4
79347;BME280;68815;48.810;44.482;2023-05-10T11:27:15;100733;;;16.3;41
79347;BME280;68815;48.810;44.482;2023-05-10T11:30:17;100740;;;16.2;40.5
79347;BME280;68815;48.810;44.482;2023-05-10T11:33:19;100732;;;16.3;41.3
79347;BME280;68815;48.810;44.482;2023-05-10T11:36:24;100718;;;16.3;40
79347;BME280;68815;48.810;44.482;2023-05-10T11:39:26;100713;;;16.5;41
79347;BME280;68815;48.810;44.482;2023-05-10T11:42:28;100717;;;16.7;41.5
79347;BME280;68815;48.810;44.482;2023-05-10T11:45:32;100719;;;17;41.2
79347;BME280;68815;48.810;44.482;2023-05-10T11:48:33;100710;;;17.1;40.3
79347;BME280;68815;48.810;44.482;2023-05-10T11:51:36;100717;;;16.4;40.5
79347;BME280;68815;48.810;44.482;2023-05-10T11:54:37;100719;;;16.5;41.2
79347;BME280;68815;48.810;44.482;2023-05-10T11:57:46;100707;;;16.5;40.9
79347;BME280;68815;48.810;44.482;2023-05-10T12:00:48;100692;;;16.7;41.1
79347;BME280;68815;48.810;44.482;2023-05-10T12:03:51;100694;;;17;40.9
79347;BME280;68815;48.810;44.482;2023-05-10T12:06:53;100697;;;17.1;40.4
79347;BME280;68815;48.810;44.482;2023-05-10T12:10:02;100709;;;16.3;39.6
79347;BME280;68815;48.810;44.482;2023-05-10T12:13:11;100700;;;16.3;40.8
79347;BME280;68815;48.810;44.482;2023-05-10T12:16:19;100700;;;16.5;40.2
79347;BME280;68815;48.810;44.482;2023-05-10T12:19:21;100692;;;16.7;40.7
79347;BME280;68815;48.810;44.482;2023-05-10T12:22:22;100706;;;16.8;40.4
79347;BME280;68815;48.810;44.482;2023-05-10T12:25:30;100712;;;16.6;39.4
79347;BME280;68815;48.810;44.482;2023-05-10T12:28:33;100711;;;16.1;41
79347;BME280;68815;48.810;44.482;2023-05-10T12:31:55;100716;;;16.2;41.5
79347;BME280;68815;48.810;44.482;2023-05-10T12:34:57;100715;;;16.1;41.2
79347;BME280;68815;48.810;44.482;2023-05-10T12:37:59;100713;;;16.1;41.6
79347;BME280;68815;48.810;44.482;2023-05-10T12:41:02;100712;;;16;41
79347;BME280;68815;48.810;44.482;2023-05-10T12:44:04;100701;;;16;41.8
79347;BME280;68815;48.810;44.482;2023-05-10T12:47:06;100706;;;15.8;41.2
79347;BME280;68815;48.810;44.482;2023-05-10T12:50:08;100704;;;15.8;42.1
79347;BME280;68815;48.810;44.482;2023-05-10T12:53:10;100704;;;16;42.4
79347;BME280;68815;48.810;44.482;2023-05-10T12:56:22;100700;;;16.1;42.7
79347;BME280;68815;48.810;44.482;2023-05-10T12:59:28;100700;;;16.1;42.5
79347;BME280;68815;48.810;44.482;2023-05-10T13:02:30;100697;;;16;42.2
79347;BME280;68815;48.810;44.482;2023-05-10T13:05:31;100697;;;16.1;43.4
79347;BME280;68815;48.810;44.482;2023-05-10T13:08:33;100693;;;16.1;44
79347;BME280;68815;48.810;44.482;2023-05-10T13:11:35;100698;;;16;45.9
79347;BME280;68815;48.810;44.482;2023-05-10T13:14:36;100706;;;16;46.4
79347;BME280;68815;48.810;44.482;2023-05-10T13:17:38;100702;;;16;45.6
79347;BME280;68815;48.810;44.482;2023-05-10T13:20:39;100705;;;16.1;46.4
79347;BME280;68815;48.810;44.482;2023-05-10T13:23:41;100702;;;16.1;45.3
79347;BME280;68815;48.810;44.482;2023-05-10T13:26:42;100694;;;16.1;45.8
79347;BME280;68815;48.810;44.482;2023-05-10T13:29:44;100693;;;16.1;46
79347;BME280;68815;48.810;44.482;2023-05-10T13:32:45;100694;;;16.2;45.5
79347;BME280;68815;48.810;44.482;2023-05-10T13:35:47;100698;;;16.3;45.7
79347;BME280;68815;48.810;44.482;2023-05-10T13:38:48;100700;;;16.3;45.7
79347;BME280;68815;48.810;44.482;2023-05-10T13:41:49;100716;;;16.3;45.8
79347;BME280;68815;48.810;44.482;2023-05-10T13:44:51;100708;;;16.2;45.6
79347;BME280;68815;48.810;44.482;2023-05-10T13:47:52;100701;;;16.2;46.2
79347;BME280;68815;48.810;44.482;2023-05-10T13:50:54;100703;;;16.1;47
79347;BME280;68815;48.810;44.482;2023-05-10T13:53:55;100699;;;16;48.8
79347;BME280;68815;48.810;44.482;2023-05-10T13:56:57;100698;;;16;50.1
79347;BME280;68815;48.810;44.482;2023-05-10T13:59:59;100699;;;15.9;51
79347;BME280;68815;48.810;44.482;2023-05-10T14:03:00;100700;;;15.9;51.1
79347;BME280;68815;48.810;44.482;2023-05-10T14:06:02;100708;;;15.8;51.8
79347;BME280;68815;48.810;44.482;2023-05-10T14:09:04;100707;;;15.8;52.2
79347;BME280;68815;48.810;44.482;2023-05-10T14:12:06;100720;;;15.7;53.2
79347;BME280;68815;48.810;44.482;2023-05-10T14:15:08;100717;;;15.7;53.7
79347;BME280;68815;48.810;44.482;2023-05-10T14:18:09;100719;;;15.7;54.8
79347;BME280;68815;48.810;44.482;2023-05-10T14:21:10;100709;;;15.6;56
79347;BME280;68815;48.810;44.482;2023-05-10T14:24:12;100711;;;15.5;57.4
79347;BME280;68815;48.810;44.482;2023-05-10T14:27:13;100716;;;15.3;60
79347;BME280;68815;48.810;44.482;2023-05-10T14:30:14;100712;;;15.2;61.1
79347;BME280;68815;48.810;44.482;2023-05-10T14:33:16;100716;;;15.1;60.7
79347;BME280;68815;48.810;44.482;2023-05-10T14:36:18;100713;;;15.1;62.1
79347;BME280;68815;48.810;44.482;2023-05-10T14:39:19;100717;;;15.1;63.4
79347;BME280;68815;48.810;44.482;2023-05-10T14:42:21;100710;;;15.2;62.6
79347;BME280;68815;48.810;44.482;2023-05-10T14:45:22;100710;;;14.9;65.6
79347;BME280;68815;48.810;44.482;2023-05-10T14:48:24;100713;;;14.8;66.1
79347;BME280;68815;48.810;44.482;2023-05-10T14:51:25;100717;;;14.9;65.4
79347;BME280;68815;48.810;44.482;2023-05-10T14:54:27;100728;;;15;64.7
79347;BME280;68815;48.810;44.482;2023-05-10T14:57:28;100723;;;15;64.6
79347;BME280;68815;48.810;44.482;2023-05-10T15:00:31;100722;;;14.9;65.2
79347;BME280;68815;48.810;44.482;2023-05-10T15:03:32;100726;;;15;64.8
79347;BME280;68815;48.810;44.482;2023-05-10T15:06:34;100725;;;14.9;65.8
79347;BME280;68815;48.810;44.482;2023-05-10T15:09:36;100724;;;14.8;66.3
79347;BME280;68815;48.810;44.482;2023-05-10T15:12:38;100710;;;14.7;65.7
79347;BME280;68815;48.810;44.482;2023-05-10T15:15:39;100697;;;14.6;66.4
79347;BME280;68815;48.810;44.482;2023-05-10T15:18:41;100696;;;14.5;65.6
79347;BME280;68815;48.810;44.482;2023-05-10T15:21:42;100699;;;14.8;65.7
79347;BME280;68815;48.810;44.482;2023-05-10T15:24:43;100698;;;14.5;69.1
79347;BME280;68815;48.810;44.482;2023-05-10T15:27:45;100700;;;14.4;69.4
79347;BME280;68815;48.810;44.482;2023-05-10T15:30:47;100699;;;14.4;70
79347;BME280;68815;48.810;44.482;2023-05-10T15:33:48;100699;;;14.3;68.5
79347;BME280;68815;48.810;44.482;2023-05-10T15:36:50;100692;;;14.4;68.5
79347;BME280;68815;48.810;44.482;2023-05-10T15:39:51;100707;;;14.4;67.9
79347;BME280;68815;48.810;44.482;2023-05-10T15:42:53;100707;;;14.3;68.3
79347;BME280;68815;48.810;44.482;2023-05-10T15:45:54;100718;;;14.4;67.9
79347;BME280;68815;48.810;44.482;2023-05-10T15:48:56;100719;;;14.4;67.7
79347;BME280;68815;48.810;44.482;2023-05-10T15:55:29;100711;;;14.3;68.4
79347;BME280;68815;48.810;44.482;2023-05-10T15:58:31;100713;;;14.4;67.3
79347;BME280;68815;48.810;44.482;2023-05-10T16:01:32;100722;;;14.4;68.3
79347;BME280;68815;48.810;44.482;2023-05-10T16:04:34;100723;;;14.3;67.7
79347;BME280;68815;48.810;44.482;2023-05-10T16:07:35;100725;;;14.3;67.9
79347;BME280;68815;48.810;44.482;2023-05-10T16:10:37;100724;;;14.3;67.9
79347;BME280;68815;48.810;44.482;2023-05-10T16:13:38;100722;;;14.2;68.3
79347;BME280;68815;48.810;44.482;2023-05-10T16:16:40;100723;;;14;69
79347;BME280;68815;48.810;44.482;2023-05-10T16:19:42;100720;;;14.1;68.5
79347;BME280;68815;48.810;44.482;2023-05-10T16:22:43;100723;;;14.2;69.3
79347;BME280;68815;48.810;44.482;2023-05-10T16:25:44;100722;;;14.4;67.2
79347;BME280;68815;48.810;44.482;2023-05-10T16:28:46;100719;;;14.1;68.1
79347;BME280;68815;48.810;44.482;2023-05-10T16:31:47;100722;;;14.1;68.5
79347;BME280;68815;48.810;44.482;2023-05-10T16:34:48;100718;;;14;68.6
79347;BME280;68815;48.810;44.482;2023-05-10T16:37:50;100722;;;14.4;66.6
79347;BME280;68815;48.810;44.482;2023-05-10T16:40:51;100721;;;14.4;66.5
79347;BME280;68815;48.810;44.482;2023-05-10T16:43:53;100726;;;14;68.7
79347;BME280;68815;48.810;44.482;2023-05-10T16:46:55;100723;;;13.9;68.9
79347;BME280;68815;48.810;44.482;2023-05-10T16:49:56;100726;;;13.8;69.1
79347;BME280;68815;48.810;44.482;2023-05-10T16:52:57;100739;;;14.2;67.5
79347;BME280;68815;48.810;44.482;2023-05-10T16:56:00;100746;;;14.2;67.1
79347;BME280;68815;48.810;44.482;2023-05-10T16:59:01;100748;;;14.3;66.8
79347;BME280;68815;48.810;44.482;2023-05-10T17:02:02;100755;;;14.2;67.6
79347;BME280;68815;48.810;44.482;2023-05-10T17:05:04;100748;;;13.9;69
79347;BME280;68815;48.810;44.482;2023-05-10T17:08:06;100744;;;13.8;69.8
79347;BME280;68815;48.810;44.482;2023-05-10T17:11:07;100752;;;13.4;70.9
79347;BME280;68815;48.810;44.482;2023-05-10T17:14:09;100759;;;13.8;69.3
79347;BME280;68815;48.810;44.482;2023-05-10T17:17:10;100766;;;13.8;69